Time;durP1;ratioP1;P1;durP2;ratioP2;P2;SDS_P1;SDS_P2;PMS_P1;PMS_P2;Temp;Humidity;BMP_temperature;BMP_pressure;BME280_temperature;BME280_humidity;BME280_pressure;Samples;Min_cycle;Max_cycle;Signal;HPM_P1;HPM_P2
2023/07/29 00:00:50;;;;;;;7.15;3.40;;;;;;;21.55;100.00;100394.28;5107044;28;20059;-64
2023/07/29 00:03:17;;;;;;;9.40;6.60;;;;;;;21.42;100.00;100386.63;5090833;28;20059;-65
2023/07/29 00:05:45;;;;;;;13.85;10.05;;;;;;;21.42;100.00;100386.63;5093023;28;20055;-63
2023/07/29 00:08:12;;;;;;;11.05;5.65;;;;;;;21.30;100.00;100373.78;5112664;28;20047;-64
2023/07/29 00:10:40;;;;;;;13.48;9.60;;;;;;;21.43;100.00;100374.25;5112242;28;20082;-64
2023/07/29 00:13:07;;;;;;;8.10;3.38;;;;;;;21.48;99.96;100373.84;5094878;28;20495;-64
2023/07/29 00:15:35;;;;;;;7.80;3.05;;;;;;;21.48;98.64;100365.44;5133173;27;20043;-65
2023/07/29 00:18:02;;;;;;;7.15;2.95;;;;;;;21.52;97.14;100360.63;5127416;27;20044;-64
2023/07/29 00:20:30;;;;;;;4.05;2.40;;;;;;;21.65;95.10;100361.91;5094285;28;20035;-64
2023/07/29 00:22:58;;;;;;;6.95;3.20;;;;;;;21.75;94.65;100353.50;5090399;28;20047;-65
2023/07/29 00:25:25;;;;;;;5.78;2.67;;;;;;;21.65;94.48;100343.09;5108824;28;20062;-65
2023/07/29 00:27:56;;;;;;;5.30;2.30;;;;;;;21.48;94.82;100359.84;5112637;28;20059;-65
2023/07/29 00:30:25;;;;;;;5.13;2.55;;;;;;;21.49;95.25;100356.66;5093439;28;20044;-64
2023/07/29 00:32:53;;;;;;;4.80;2.50;;;;;;;21.51;95.57;100357.06;5076878;28;20044;-63
2023/07/29 00:35:20;;;;;;;5.28;2.33;;;;;;;21.36;95.44;100361.00;5111906;28;20048;-65
2023/07/29 00:37:48;;;;;;;3.92;2.00;;;;;;;21.50;94.30;100361.03;5112533;28;20071;-61
2023/07/29 00:40:22;;;;;;;9.05;1.95;;;;;;;21.47;93.88;100361.03;5032492;28;20065;-60
2023/07/29 00:42:50;;;;;;;5.13;1.80;;;;;;;21.33;94.02;100373.00;5009489;28;20073;-61
2023/07/29 00:45:18;;;;;;;5.13;2.22;;;;;;;21.44;93.59;100382.25;5075972;28;20054;-61
2023/07/29 00:47:46;;;;;;;5.75;1.90;;;;;;;21.42;92.88;100378.22;5075613;28;20054;-61
2023/07/29 00:50:14;;;;;;;6.10;2.30;;;;;;;21.29;93.13;100374.19;5071825;28;20058;-61
2023/07/29 00:52:42;;;;;;;4.00;1.92;;;;;;;21.17;93.78;100369.72;5077772;28;20058;-64
2023/07/29 00:55:09;;;;;;;2.67;1.70;;;;;;;21.00;93.80;100373.22;5080257;28;20516;-64
2023/07/29 00:57:37;;;;;;;3.95;1.52;;;;;;;21.08;92.28;100374.84;4995234;28;20055;-64
2023/07/29 01:00:05;;;;;;;2.53;1.67;;;;;;;21.27;91.17;100382.19;5075551;28;20054;-64
2023/07/29 01:02:33;;;;;;;3.20;1.65;;;;;;;21.16;91.02;100384.94;5051692;28;20065;-65
2023/07/29 01:05:01;;;;;;;2.05;1.40;;;;;;;21.23;91.00;100384.97;5082563;28;20046;-64
2023/07/29 01:07:38;;;;;;;2.58;1.45;;;;;;;21.24;90.87;100384.56;5082658;28;20156;-64
2023/07/29 01:10:25;;;;;;;3.63;1.52;;;;;;;21.08;90.73;100383.25;5066972;28;20060;-61
2023/07/29 01:12:58;;;;;;;3.10;1.45;;;;;;;21.12;91.25;100373.69;5082949;28;20053;-60
2023/07/29 01:15:45;;;;;;;3.72;1.70;;;;;;;20.98;91.69;100362.41;5015273;28;20053;-61
2023/07/29 01:18:19;;;;;;;2.35;1.55;;;;;;;20.97;92.14;100352.38;5082302;28;20061;-60
2023/07/29 01:20:47;;;;;;;3.35;1.90;;;;;;;20.84;92.20;100370.72;5083649;28;20054;-62
2023/07/29 01:23:15;;;;;;;8.20;1.67;;;;;;;20.93;92.10;100359.97;5082089;28;20562;-61
2023/07/29 01:25:43;;;;;;;4.32;1.83;;;;;;;20.93;90.78;100354.38;5015325;28;20532;-60
2023/07/29 01:28:11;;;;;;;2.55;1.40;;;;;;;20.82;90.04;100361.88;5100015;28;20613;-60
2023/07/29 01:30:40;;;;;;;3.45;1.77;;;;;;;20.87;90.77;100369.91;5100460;28;20091;-64
2023/07/29 01:33:14;;;;;;;6.53;1.95;;;;;;;20.92;90.16;100368.75;5066557;28;20043;-65
2023/07/29 01:35:51;;;;;;;4.45;1.60;;;;;;;20.59;90.93;100360.56;5100210;28;20050;-64
2023/07/29 01:38:20;;;;;;;2.60;1.35;;;;;;;20.68;90.75;100347.00;5100573;28;20083;-65
2023/07/29 01:40:49;;;;;;;3.60;1.60;;;;;;;20.70;89.79;100355.81;5100382;28;20430;-64
2023/07/29 01:43:18;;;;;;;2.95;1.45;;;;;;;20.83;87.94;100352.31;5059177;28;20059;-61
2023/07/29 01:45:46;;;;;;;3.08;1.50;;;;;;;20.67;88.33;100339.81;5109252;28;20044;-60
2023/07/29 01:48:14;;;;;;;2.55;1.30;;;;;;;20.71;89.54;100352.63;5062576;28;20135;-60
2023/07/29 01:50:41;;;;;;;3.65;1.40;;;;;;;20.65;89.26;100365.38;5095909;28;20056;-64
2023/07/29 01:53:08;;;;;;;2.03;1.30;;;;;;;20.44;90.72;100358.81;5096826;28;20048;-64
2023/07/29 01:55:37;;;;;;;4.35;1.42;;;;;;;20.55;90.76;100366.13;5079453;28;20047;-64
2023/07/29 01:58:05;;;;;;;1.95;1.35;;;;;;;20.48;90.88;100371.66;5062227;28;20052;-62
2023/07/29 02:00:35;;;;;;;5.18;1.77;;;;;;;20.47;91.54;100375.63;5059443;28;20048;-64
2023/07/29 02:03:02;;;;;;;2.60;1.58;;;;;;;20.66;91.19;100383.00;5067850;28;20718;-64
2023/07/29 02:05:30;;;;;;;2.85;1.60;;;;;;;20.61;91.17;100389.75;5094185;28;20590;-63
2023/07/29 02:07:57;;;;;;;2.30;1.58;;;;;;;20.46;91.77;100395.63;5094740;28;20052;-64
2023/07/29 02:10:25;;;;;;;2.70;1.42;;;;;;;20.36;92.97;100385.97;5092021;28;20446;-64
2023/07/29 02:12:53;;;;;;;3.65;1.60;;;;;;;20.40;91.76;100346.81;5095135;28;20048;-64
2023/07/29 02:15:20;;;;;;;3.90;1.50;;;;;;;20.33;92.44;100335.56;5096805;28;20039;-64
2023/07/29 02:17:50;;;;;;;2.53;1.40;;;;;;;20.24;92.33;100349.91;5114978;28;20050;-64
2023/07/29 02:20:17;;;;;;;2.22;1.45;;;;;;;20.29;91.75;100343.13;5062594;28;20051;-65
2023/07/29 02:22:48;;;;;;;2.88;1.40;;;;;;;20.42;90.91;100353.63;5087847;28;20059;-62
2023/07/29 02:25:15;;;;;;;3.03;1.38;;;;;;;20.38;89.24;100352.78;5078966;28;20047;-60
2023/07/29 02:27:43;;;;;;;7.18;1.45;;;;;;;20.25;91.25;100351.50;5079374;28;20067;-64
2023/07/29 02:30:11;;;;;;;3.28;1.48;;;;;;;20.32;90.19;100359.13;5062796;28;20060;-64
2023/07/29 02:32:38;;;;;;;3.83;1.42;;;;;;;20.15;91.49;100368.97;5092680;28;20047;-64
2023/07/29 02:35:06;;;;;;;3.47;1.50;;;;;;;19.90;92.44;100382.69;5075963;28;20380;-64
2023/07/29 02:37:33;;;;;;;2.85;1.55;;;;;;;19.92;93.04;100374.72;5075337;28;20052;-64
2023/07/29 02:40:01;;;;;;;3.17;1.50;;;;;;;19.96;92.88;100378.34;5088953;28;20073;-63
2023/07/29 02:42:28;;;;;;;5.93;1.60;;;;;;;19.91;93.90;100375.91;5082889;28;20059;-60
2023/07/29 02:44:56;;;;;;;3.70;1.60;;;;;;;19.77;93.78;100363.78;5091920;28;20079;-60
2023/07/29 02:47:24;;;;;;;3.83;1.40;;;;;;;19.88;93.15;100356.31;5013971;28;20054;-61
2023/07/29 02:49:51;;;;;;;5.85;1.50;;;;;;;19.99;93.07;100369.22;5009110;28;20042;-60
2023/07/29 02:52:18;;;;;;;4.25;1.60;;;;;;;19.96;93.50;100363.59;5020800;28;20042;-59
2023/07/29 02:54:46;;;;;;;2.92;1.70;;;;;;;20.05;92.39;100373.25;5113410;28;20058;-60
2023/07/29 02:57:17;;;;;;;4.15;1.33;;;;;;;19.85;93.55;100376.66;5095413;28;20048;-60
2023/07/29 02:59:45;;;;;;;5.25;1.45;;;;;;;19.85;93.39;100374.66;5078762;28;20047;-61
2023/07/29 03:02:12;;;;;;;3.53;1.40;;;;;;;19.84;93.22;100378.63;5112242;28;20059;-59
2023/07/29 03:04:39;;;;;;;3.10;1.38;;;;;;;19.94;93.27;100375.16;5114116;28;20043;-60
2023/07/29 03:07:07;;;;;;;2.10;1.50;;;;;;;19.89;94.10;100378.28;5112383;28;20046;-60
2023/07/29 03:09:34;;;;;;;3.60;1.42;;;;;;;20.01;92.33;100383.59;5112746;28;20051;-60
2023/07/29 03:12:02;;;;;;;6.18;1.83;;;;;;;19.93;93.00;100383.91;5095304;28;20062;-65
2023/07/29 03:14:31;;;;;;;3.50;1.42;;;;;;;19.81;93.31;100387.78;5049029;28;20049;-64
2023/07/29 03:17:02;;;;;;;3.67;1.60;;;;;;;19.80;93.80;100385.38;5009278;28;20049;-64
2023/07/29 03:19:30;;;;;;;4.50;1.77;;;;;;;19.75;93.83;100386.50;5025710;28;20054;-60
2023/07/29 03:21:57;;;;;;;2.55;1.40;;;;;;;19.81;93.23;100390.59;5010190;28;20065;-59
2023/07/29 03:24:25;;;;;;;6.07;1.55;;;;;;;19.87;93.56;100399.44;5107238;28;20070;-64
2023/07/29 03:26:52;;;;;;;3.50;1.70;;;;;;;19.84;93.10;100398.19;5113496;28;20044;-64
2023/07/29 03:29:19;;;;;;;2.85;1.50;;;;;;;19.88;92.48;100403.81;5097558;28;20059;-64
2023/07/29 03:31:47;;;;;;;3.58;1.60;;;;;;;19.80;92.98;100402.16;5074636;28;20067;-61
2023/07/29 03:34:14;;;;;;;2.80;1.63;;;;;;;19.66;93.18;100416.78;5092772;28;20539;-60
2023/07/29 03:36:47;;;;;;;8.05;2.15;;;;;;;19.60;94.33;100411.88;5074669;28;20127;-61
2023/07/29 03:39:14;;;;;;;3.10;1.83;;;;;;;19.66;94.25;100413.97;5071457;28;20056;-60
2023/07/29 03:41:42;;;;;;;2.22;1.67;;;;;;;19.70;93.73;100411.22;5092576;28;20059;-59
2023/07/29 03:44:10;;;;;;;5.40;1.85;;;;;;;19.69;94.49;100410.41;5054545;28;20050;-61
2023/07/29 03:46:37;;;;;;;4.65;1.77;;;;;;;19.52;94.73;100405.44;5075725;28;20052;-61
2023/07/29 03:49:07;;;;;;;;;;;;;;;19.55;93.97;100401.88;5058213;28;20471;-60
2023/07/29 03:51:34;;;;;;;6.18;1.80;;;;;;;19.56;94.83;100408.28;5011844;28;19928;-59
2023/07/29 03:54:02;;;;;;;3.17;1.80;;;;;;;19.65;94.12;100403.97;5009653;28;20046;-60
2023/07/29 03:56:29;;;;;;;3.03;1.70;;;;;;;19.67;94.34;100404.41;5077080;28;20048;-60
2023/07/29 03:59:04;;;;;;;5.57;2.15;;;;;;;19.45;94.92;100401.75;5087564;28;20036;-60
2023/07/29 04:01:32;;;;;;;3.97;1.90;;;;;;;19.59;95.64;100404.69;5008245;28;20049;-59
2023/07/29 04:04:00;;;;;;;6.53;2.22;;;;;;;19.46;96.00;100412.53;5048119;28;20037;-60
2023/07/29 04:06:27;;;;;;;7.70;2.00;;;;;;;19.60;95.23;100418.28;5077389;28;20050;-64
2023/07/29 04:08:55;;;;;;;5.05;2.30;;;;;;;19.40;95.66;100416.84;5009176;28;20430;-64
2023/07/29 04:11:23;;;;;;;4.90;2.33;;;;;;;19.59;94.09;100411.09;5008324;28;20060;-64
2023/07/29 04:13:50;;;;;;;3.38;2.30;;;;;;;19.40;94.13;100416.03;5058617;28;20061;-64
2023/07/29 04:16:18;;;;;;;4.60;2.30;;;;;;;19.34;95.19;100418.34;5103948;28;20045;-63
2023/07/29 04:18:46;;;;;;;5.07;2.47;;;;;;;19.37;95.58;100412.00;5093414;28;20047;-63
2023/07/29 04:21:13;;;;;;;3.80;2.20;;;;;;;19.45;95.82;100410.13;5128270;27;20530;-65
2023/07/29 04:23:41;;;;;;;6.50;2.25;;;;;;;19.54;94.63;100416.22;5042620;27;20159;-60
2023/07/29 04:26:08;;;;;;;4.18;2.10;;;;;;;19.57;94.92;100427.44;5078524;28;20050;-61
2023/07/29 04:28:35;;;;;;;6.32;2.00;;;;;;;19.38;94.65;100437.97;5093888;28;20054;-60
2023/07/29 04:31:03;;;;;;;6.32;2.10;;;;;;;19.46;94.97;100445.22;5094701;28;20094;-61
2023/07/29 04:33:30;;;;;;;4.47;2.10;;;;;;;19.51;94.90;100431.75;5112561;28;20050;-61
2023/07/29 04:36:01;;;;;;;5.45;2.00;;;;;;;19.35;94.85;100431.16;5112462;28;20040;-60
2023/07/29 04:38:33;;;;;;;4.53;2.00;;;;;;;19.35;95.71;100435.94;5093188;28;20082;-60
2023/07/29 04:41:01;;;;;;;5.32;2.45;;;;;;;19.44;95.20;100426.06;5112394;28;20059;-60
2023/07/29 04:43:32;;;;;;;4.60;1.85;;;;;;;19.37;94.71;100423.19;5086888;28;20058;-60
2023/07/29 04:46:00;;;;;;;6.20;2.15;;;;;;;19.30;95.83;100422.28;5084341;28;20038;-60
2023/07/29 04:48:27;;;;;;;4.82;2.00;;;;;;;19.49;94.81;100422.16;5076153;28;20043;-60
2023/07/29 04:50:55;;;;;;;5.05;2.17;;;;;;;19.57;94.26;100433.03;5093873;28;20035;-63
2023/07/29 04:53:23;;;;;;;3.30;1.70;;;;;;;19.58;93.40;100425.47;5094210;28;20052;-64
2023/07/29 04:55:50;;;;;;;3.33;1.83;;;;;;;19.63;92.92;100425.91;5111932;28;20070;-64
2023/07/29 04:58:18;;;;;;;3.03;1.70;;;;;;;19.75;92.31;100422.06;5092198;28;20052;-64
2023/07/29 05:00:47;;;;;;;7.47;1.92;;;;;;;19.57;92.16;100427.44;5110289;28;20058;-64
2023/07/29 05:03:14;;;;;;;6.13;1.80;;;;;;;19.62;92.95;100432.69;5093624;28;20557;-64
2023/07/29 05:05:41;;;;;;;4.00;1.58;;;;;;;19.58;92.97;100429.03;5093287;28;20051;-60
2023/07/29 05:08:09;;;;;;;4.88;1.80;;;;;;;19.62;92.78;100435.47;5087284;28;20051;-61
2023/07/29 05:10:36;;;;;;;11.63;1.85;;;;;;;19.60;93.38;100434.25;5009240;28;20050;-60
2023/07/29 05:13:04;;;;;;;4.43;1.90;;;;;;;19.68;92.32;100449.94;5020342;28;20048;-62
2023/07/29 05:15:31;;;;;;;3.78;1.98;;;;;;;19.76;92.08;100435.66;5059750;28;20050;-60
2023/07/29 05:17:58;;;;;;;5.45;2.25;;;;;;;19.71;92.88;100430.41;5093662;28;20042;-60
2023/07/29 05:20:26;;;;;;;3.13;1.70;;;;;;;19.83;92.13;100441.31;5125832;28;20063;-61
2023/07/29 05:22:53;;;;;;;4.22;2.00;;;;;;;19.92;91.34;100439.03;5073092;28;20058;-60
2023/07/29 05:25:21;;;;;;;3.65;1.52;;;;;;;19.85;91.17;100438.16;5105024;28;20057;-60
2023/07/29 05:27:48;;;;;;;3.53;1.50;;;;;;;19.89;90.89;100436.19;5112246;28;20056;-60
2023/07/29 05:30:16;;;;;;;3.20;1.70;;;;;;;19.64;91.72;100432.31;5111838;28;20051;-61
2023/07/29 05:32:44;;;;;;;4.55;1.70;;;;;;;19.77;91.62;100434.44;5111846;28;20059;-60
2023/07/29 05:35:11;;;;;;;4.15;1.70;;;;;;;19.87;90.59;100436.59;5111884;28;20044;-61
2023/07/29 05:37:41;;;;;;;4.68;1.52;;;;;;;19.73;91.57;100444.00;5093834;28;20044;-61
2023/07/29 05:40:09;;;;;;;;;;;;;;;19.78;91.17;100444.47;5116189;28;20051;-63
2023/07/29 05:42:37;;;;;;;4.07;1.85;;;;;;;20.01;90.51;100444.31;5092831;28;19920;-65
2023/07/29 05:45:06;;;;;;;2.70;1.80;;;;;;;20.04;89.78;100443.53;5111400;28;20263;-64
2023/07/29 05:47:33;;;;;;;4.22;1.50;;;;;;;19.85;90.01;100444.53;5096847;28;20051;-63
2023/07/29 05:50:04;;;;;;;3.55;1.60;;;;;;;19.92;90.66;100444.63;5115672;28;20040;-60
2023/07/29 05:52:32;;;;;;;5.47;1.88;;;;;;;19.85;90.58;100438.16;5115356;28;20048;-64
2023/07/29 05:54:59;;;;;;;3.20;1.25;;;;;;;19.82;90.54;100442.50;5097358;28;20044;-64
2023/07/29 05:57:28;;;;;;;2.25;1.38;;;;;;;19.92;90.03;100439.03;5097096;28;20048;-60
2023/07/29 05:59:56;;;;;;;2.00;1.40;;;;;;;20.09;89.75;100438.41;5051829;28;20504;-61
2023/07/29 06:02:23;;;;;;;2.60;1.63;;;;;;;19.90;89.67;100441.41;5075639;28;20413;-61
2023/07/29 06:04:52;;;;;;;7.25;4.32;;;;;;;19.93;89.35;100440.63;5078778;28;20060;-61
2023/07/29 06:07:19;;;;;;;2.35;1.40;;;;;;;19.90;90.20;100432.22;5096277;28;20054;-59
2023/07/29 06:09:47;;;;;;;3.17;1.50;;;;;;;19.90;89.88;100433.03;5097061;28;20169;-63
2023/07/29 06:12:14;;;;;;;3.35;1.50;;;;;;;20.31;88.41;100435.84;5096661;28;20058;-64
2023/07/29 06:14:42;;;;;;;3.03;1.48;;;;;;;20.46;85.04;100435.59;5029573;28;20448;-61
2023/07/29 06:17:11;;;;;;;2.88;1.50;;;;;;;20.38;85.52;100445.09;5011692;28;20050;-61
2023/07/29 06:19:38;;;;;;;2.38;1.20;;;;;;;20.36;84.92;100461.50;5026415;28;20390;-61
2023/07/29 06:22:06;;;;;;;2.28;0.93;;;;;;;20.39;84.54;100462.69;5027692;28;20054;-60
2023/07/29 06:24:34;;;;;;;3.47;1.25;;;;;;;20.33;84.96;100467.06;5099546;28;20056;-62
2023/07/29 06:27:01;;;;;;;4.85;1.25;;;;;;;20.20;85.44;100474.91;5096757;28;20051;-62
2023/07/29 06:29:29;;;;;;;2.50;1.20;;;;;;;20.29;85.66;100475.41;5065882;28;20061;-63
2023/07/29 06:31:58;;;;;;;2.63;1.17;;;;;;;20.38;85.61;100473.06;5087365;28;20050;-65
2023/07/29 06:34:25;;;;;;;4.85;1.48;;;;;;;20.41;84.81;100461.13;5114284;28;20055;-64
2023/07/29 06:36:53;;;;;;;3.25;0.98;;;;;;;20.23;85.39;100471.34;5114874;28;20046;-64
2023/07/29 06:39:20;;;;;;;2.40;1.10;;;;;;;20.46;84.39;100476.75;5113211;28;20048;-64
2023/07/29 06:41:47;;;;;;;5.30;1.52;;;;;;;20.27;85.72;100479.78;5096462;28;20052;-63
2023/07/29 06:44:17;;;;;;;;;;;;;;;20.39;84.53;100480.31;5095685;28;20052;-60
2023/07/29 06:46:45;;;;;;;4.38;1.00;;;;;;;20.26;83.88;100470.56;5114632;28;19923;-60
2023/07/29 06:49:12;;;;;;;1.92;1.20;;;;;;;20.34;84.35;100471.44;5113914;28;20050;-64
2023/07/29 06:51:40;;;;;;;3.17;0.90;;;;;;;20.54;83.09;100472.84;5114425;28;20058;-64
2023/07/29 06:54:07;;;;;;;2.15;1.00;;;;;;;20.77;81.98;100477.03;5095322;28;20060;-61
2023/07/29 06:56:35;;;;;;;1.50;0.95;;;;;;;20.87;80.84;100478.34;5114871;28;20047;-60
2023/07/29 06:59:02;;;;;;;3.03;1.20;;;;;;;20.61;81.10;100490.50;5107027;28;20040;-59
2023/07/29 07:01:30;;;;;;;1.30;0.90;;;;;;;20.43;82.17;100489.53;5045358;28;20058;-64
2023/07/29 07:03:58;;;;;;;0.98;0.82;;;;;;;20.40;82.09;100484.69;5094479;28;20057;-64
2023/07/29 07:06:25;;;;;;;2.97;0.88;;;;;;;20.65;81.47;100491.34;5025976;28;20047;-65
2023/07/29 07:08:53;;;;;;;5.05;1.55;;;;;;;20.73;81.42;100495.00;5129819;27;20039;-60
2023/07/29 07:11:20;;;;;;;3.22;0.90;;;;;;;20.65;80.87;100499.72;5096299;28;20047;-64
2023/07/29 07:13:48;;;;;;;3.70;0.90;;;;;;;21.12;79.75;100490.53;5079329;28;20413;-64
2023/07/29 07:16:15;;;;;;;1.38;0.90;;;;;;;21.03;78.98;100502.06;5010657;28;20053;-66
2023/07/29 07:18:43;;;;;;;1.38;0.85;;;;;;;21.03;79.48;100504.06;5010630;28;20049;-64
2023/07/29 07:21:10;;;;;;;2.50;1.80;;;;;;;21.01;79.20;100506.44;5010696;28;20058;-64
2023/07/29 07:23:39;;;;;;;2.22;0.80;;;;;;;21.23;78.08;100513.84;5076605;28;20080;-60
2023/07/29 07:26:06;;;;;;;1.02;0.75;;;;;;;21.11;78.66;100512.13;5111135;28;20495;-59
2023/07/29 07:28:34;;;;;;;1.98;0.95;;;;;;;21.38;77.20;100507.13;5094678;28;20536;-60
2023/07/29 07:31:01;;;;;;;2.97;0.80;;;;;;;21.36;77.60;100512.31;5113836;28;20057;-63
2023/07/29 07:33:28;;;;;;;1.98;0.80;;;;;;;21.21;78.79;100508.63;5113423;28;20058;-64
2023/07/29 07:35:56;;;;;;;2.45;0.90;;;;;;;21.29;79.19;100512.25;5093919;28;20050;-64
2023/07/29 07:38:23;;;;;;;4.72;0.90;;;;;;;21.24;78.57;100515.44;5113494;28;20379;-65
2023/07/29 07:40:55;;;;;;;2.60;0.73;;;;;;;21.48;77.53;100525.19;5111454;28;20063;-65
2023/07/29 07:43:23;;;;;;;5.88;1.15;;;;;;;21.65;76.21;100530.91;5092549;28;20056;-64
2023/07/29 07:45:51;;;;;;;1.05;0.80;;;;;;;21.40;76.88;100524.34;5008959;28;20038;-64
2023/07/29 07:48:20;;;;;;;1.60;0.90;;;;;;;21.50;77.05;100522.78;5035743;28;20452;-64
2023/07/29 07:50:47;;;;;;;1.08;0.70;;;;;;;21.31;77.27;100528.66;5111819;28;20048;-63
2023/07/29 07:53:14;;;;;;;2.05;0.98;;;;;;;21.53;76.53;100520.00;5094366;28;20051;-64
2023/07/29 07:55:42;;;;;;;3.15;1.10;;;;;;;21.66;76.02;100521.28;5105188;28;20040;-63
2023/07/29 07:58:09;;;;;;;2.75;1.30;;;;;;;21.79;75.37;100519.00;5102675;28;20036;-65
2023/07/29 08:00:36;;;;;;;2.60;1.25;;;;;;;22.03;74.14;100513.47;5104078;28;20044;-64
2023/07/29 08:03:04;;;;;;;4.03;1.10;;;;;;;22.20;74.06;100515.53;5070991;28;20047;-67
2023/07/29 08:05:32;;;;;;;2.78;1.40;;;;;;;22.13;73.95;100515.50;5074636;28;20073;-65
2023/07/29 08:07:59;;;;;;;3.92;1.80;;;;;;;22.23;73.72;100516.72;5017558;28;20072;-66
2023/07/29 08:10:26;;;;;;;4.13;2.22;;;;;;;22.33;73.05;100522.38;5009078;28;20046;-64
2023/07/29 08:12:54;;;;;;;3.08;1.58;;;;;;;22.46;72.50;100516.38;5074676;28;20045;-64
2023/07/29 08:15:21;;;;;;;2.22;1.10;;;;;;;22.54;71.47;100521.66;5106979;28;20048;-64
2023/07/29 08:17:48;;;;;;;2.70;1.20;;;;;;;22.42;70.98;100518.41;5080802;28;20563;-63
2023/07/29 08:20:16;;;;;;;2.63;0.82;;;;;;;22.46;70.56;100519.19;5111920;28;20086;-64
2023/07/29 08:22:43;;;;;;;1.67;0.82;;;;;;;22.07;71.79;100519.09;5089428;28;20063;-64
2023/07/29 08:25:11;;;;;;;1.63;0.90;;;;;;;22.18;71.83;100519.91;5093050;28;20059;-63
2023/07/29 08:27:38;;;;;;;2.50;0.80;;;;;;;22.20;71.65;100528.75;5112778;28;20051;-64
2023/07/29 08:30:07;;;;;;;1.42;0.80;;;;;;;22.04;72.41;100528.28;5093919;28;20048;-64
2023/07/29 08:32:34;;;;;;;3.40;1.08;;;;;;;22.16;71.89;100525.94;5092713;28;20053;-63
2023/07/29 08:35:02;;;;;;;1.50;0.80;;;;;;;22.28;72.17;100519.16;5104013;28;20533;-63
2023/07/29 08:37:29;;;;;;;1.92;1.00;;;;;;;22.56;71.17;100521.25;5109874;28;20044;-63
2023/07/29 08:39:57;;;;;;;1.70;1.00;;;;;;;22.68;70.34;100526.50;5109747;28;20054;-63
2023/07/29 08:42:29;;;;;;;2.42;1.10;;;;;;;22.55;71.16;100523.25;5105027;28;20051;-63
2023/07/29 08:45:06;;;;;;;3.60;1.05;;;;;;;22.52;70.78;100517.59;5091383;28;20043;-64
2023/07/29 08:47:34;;;;;;;1.60;1.10;;;;;;;22.60;69.90;100508.81;5106348;28;20056;-63
2023/07/29 08:50:01;;;;;;;2.10;1.20;;;;;;;22.76;69.93;100512.06;5083721;28;20059;-64
2023/07/29 08:52:29;;;;;;;2.80;1.08;;;;;;;22.63;70.60;100504.44;5089587;28;20055;-64
2023/07/29 08:54:56;;;;;;;2.25;1.10;;;;;;;22.90;69.25;100505.63;5090538;28;20048;-65
2023/07/29 08:57:24;;;;;;;2.30;1.20;;;;;;;22.82;69.33;100499.19;5064880;28;20054;-68
2023/07/29 08:59:52;;;;;;;2.65;1.10;;;;;;;22.80;69.17;100507.25;5099496;28;20055;-65
2023/07/29 09:02:19;;;;;;;2.80;1.10;;;;;;;22.87;69.70;100500.81;5110007;28;20050;-66
2023/07/29 09:04:46;;;;;;;2.95;1.17;;;;;;;22.92;68.61;100504.03;5107351;28;20052;-67
2023/07/29 09:07:14;;;;;;;1.95;1.15;;;;;;;23.02;68.30;100500.41;5082277;28;20052;-67
2023/07/29 09:09:41;;;;;;;2.35;1.08;;;;;;;22.96;67.91;100501.22;5079489;28;20068;-66
2023/07/29 09:12:11;;;;;;;2.22;1.20;;;;;;;23.01;68.88;100498.00;5095649;28;20051;-67
2023/07/29 09:14:38;;;;;;;4.05;1.27;;;;;;;23.14;68.73;100487.94;5106639;28;20052;-67
2023/07/29 09:17:09;;;;;;;11.52;1.30;;;;;;;23.13;69.10;100483.53;5105524;28;20043;-67
2023/07/29 09:19:37;;;;;;;2.92;1.20;;;;;;;23.37;67.74;100483.53;5093398;28;20040;-68
2023/07/29 09:22:04;;;;;;;1.92;0.88;;;;;;;23.67;66.33;100482.22;5110173;28;20054;-68
2023/07/29 09:24:34;;;;;;;6.22;3.22;;;;;;;23.65;65.24;100484.63;5093213;28;20491;-68
2023/07/29 09:27:01;;;;;;;2.72;1.50;;;;;;;23.55;65.84;100479.88;5066559;28;20039;-68
2023/07/29 09:29:28;;;;;;;3.20;1.15;;;;;;;23.67;66.42;100480.22;5108760;28;20040;-66
2023/07/29 09:32:22;;;;;;;2.92;1.17;;;;;;;23.52;66.31;100484.28;5094109;28;20047;-67
2023/07/29 09:34:50;;;;;;;3.72;1.25;;;;;;;23.64;65.88;100483.06;5105063;28;20048;-66
2023/07/29 09:37:21;;;;;;;1.95;0.98;;;;;;;23.60;65.92;100482.25;5087561;28;20039;-68
2023/07/29 09:39:49;;;;;;;3.28;1.30;;;;;;;23.60;66.04;100485.88;5091281;28;20043;-67
2023/07/29 09:42:21;;;;;;;1.75;1.27;;;;;;;23.81;65.87;100482.16;5105925;28;20154;-67
2023/07/29 09:44:49;;;;;;;4.43;1.20;;;;;;;23.91;65.49;100481.31;5105868;28;20654;-68
2023/07/29 09:47:24;;;;;;;1.85;1.00;;;;;;;24.13;63.58;100480.81;5109131;28;20052;-67
2023/07/29 09:49:53;;;;;;;2.60;1.45;;;;;;;24.11;64.22;100483.25;5088019;28;20043;-68
2023/07/29 09:52:22;;;;;;;3.22;1.27;;;;;;;24.36;64.10;100480.28;5106192;28;20040;-68
2023/07/29 09:54:50;;;;;;;2.50;1.20;;;;;;;24.47;62.94;100486.66;5090025;28;20058;-67
2023/07/29 09:57:18;;;;;;;3.50;1.45;;;;;;;23.96;64.02;100483.69;5100419;28;20044;-68
2023/07/29 09:59:56;;;;;;;6.15;1.50;;;;;;;24.04;64.02;100477.66;5111340;28;20044;-64
2023/07/29 10:02:25;;;;;;;3.35;1.77;;;;;;;24.27;63.84;100480.75;5111228;28;20040;-63
2023/07/29 10:04:52;;;;;;;3.58;1.50;;;;;;;24.11;64.00;100479.66;5106244;28;20044;-63
2023/07/29 10:07:20;;;;;;;3.25;1.30;;;;;;;24.18;64.57;100480.41;5094223;28;20044;-65
2023/07/29 10:09:48;;;;;;;4.80;1.60;;;;;;;23.85;65.55;100483.75;5087167;28;20043;-64
2023/07/29 10:12:15;;;;;;;5.10;1.65;;;;;;;23.90;65.58;100485.34;5104100;27;20047;-66
2023/07/29 10:14:48;;;;;;;6.90;1.88;;;;;;;24.19;65.05;100469.94;5094513;28;20044;-65
2023/07/29 10:17:15;;;;;;;5.05;1.83;;;;;;;24.17;64.51;100478.00;5105621;28;20040;-65
2023/07/29 10:19:44;;;;;;;4.60;1.70;;;;;;;24.35;64.03;100473.88;5108520;28;20356;-66
2023/07/29 10:22:13;;;;;;;2.90;1.90;;;;;;;24.48;62.77;100471.34;5077629;28;20043;-65
2023/07/29 10:24:43;;;;;;;4.45;1.75;;;;;;;24.45;62.95;100470.19;5103732;28;20403;-66
2023/07/29 10:27:11;;;;;;;4.65;1.98;;;;;;;24.43;63.41;100475.41;5112905;27;20051;-65
2023/07/29 10:29:42;;;;;;;4.22;1.90;;;;;;;24.59;63.70;100469.25;5110663;28;20050;-65
2023/07/29 10:32:11;;;;;;;3.10;1.70;;;;;;;24.65;63.49;100478.09;5094628;28;20054;-66
2023/07/29 10:34:38;;;;;;;3.28;1.65;;;;;;;24.61;63.59;100472.47;5078247;28;20055;-66
2023/07/29 10:37:07;;;;;;;2.72;1.80;;;;;;;24.70;62.97;100480.47;5110684;27;20039;-65
2023/07/29 10:39:39;;;;;;;5.22;2.05;;;;;;;25.03;62.45;100479.78;5097288;28;20039;-63
2023/07/29 10:42:07;;;;;;;3.65;1.95;;;;;;;24.90;62.28;100471.03;5080997;28;20054;-63
2023/07/29 10:44:45;;;;;;;2.92;1.83;;;;;;;24.91;62.00;100478.31;5074770;28;20055;-63
2023/07/29 10:47:27;;;;;;;3.00;2.00;;;;;;;24.79;62.26;100473.19;5113056;28;20043;-64
2023/07/29 10:49:58;;;;;;;3.83;1.88;;;;;;;24.80;62.80;100482.41;5083295;28;20055;-65
2023/07/29 10:52:30;;;;;;;4.45;2.40;;;;;;;24.76;63.08;100471.16;5083178;28;20040;-64
2023/07/29 10:55:01;;;;;;;3.08;1.95;;;;;;;24.79;63.31;100470.34;5094862;28;20059;-64
2023/07/29 10:57:33;;;;;;;2.53;1.70;;;;;;;25.19;61.39;100468.78;5113323;28;20044;-65
2023/07/29 11:00:01;;;;;;;7.15;2.08;;;;;;;24.86;62.41;100463.84;5097864;28;21471;-63
2023/07/29 11:02:31;;;;;;;4.07;1.90;;;;;;;24.52;62.98;100475.75;5069550;28;20052;-64
2023/07/29 11:05:00;;;;;;;2.97;1.70;;;;;;;24.65;62.39;100476.06;5092558;28;20041;-64
2023/07/29 11:07:28;;;;;;;5.13;1.67;;;;;;;24.53;62.79;100466.09;5085715;28;20047;-64
2023/07/29 11:09:58;;;;;;;2.88;1.60;;;;;;;24.38;63.99;100472.22;5093280;28;20640;-65
2023/07/29 11:12:45;;;;;;;3.83;1.60;;;;;;;24.50;63.48;100466.91;5089807;28;20064;-64
2023/07/29 11:15:14;;;;;;;4.18;1.88;;;;;;;24.66;64.43;100471.22;5103469;27;20047;-64
2023/07/29 11:17:59;;;;;;;3.83;1.90;;;;;;;24.84;63.84;100460.66;5092978;28;20048;-64
2023/07/29 11:20:28;;;;;;;4.85;1.63;;;;;;;24.90;63.49;100476.69;5111873;28;20039;-64
2023/07/29 11:22:57;;;;;;;3.20;1.50;;;;;;;24.83;62.72;100468.28;5104669;28;20044;-63
2023/07/29 11:25:26;;;;;;;7.63;2.83;;;;;;;24.93;62.74;100466.59;5084896;28;20049;-63
2023/07/29 11:27:55;;;;;;;3.20;1.60;;;;;;;24.78;63.44;100465.09;5093125;28;20122;-63
2023/07/29 11:30:23;;;;;;;2.47;1.27;;;;;;;24.88;64.26;100465.03;5108415;28;20438;-64
2023/07/29 11:32:50;;;;;;;2.60;1.42;;;;;;;25.22;62.76;100459.47;5109224;28;20054;-65